sensor_id;sensor_type;location;lat;lon;timestamp;temperature;humidity
70676;DHT22;59069;52.242;20.900;2023-01-15T00:01:30;5.51;74.20
70676;DHT22;59069;52.242;20.900;2023-01-15T00:03:59;5.51;74.11
70676;DHT22;59069;52.242;20.900;2023-01-15T00:06:26;5.49;74.01
70676;DHT22;59069;52.242;20.900;2023-01-15T00:08:52;5.52;73.87
70676;DHT22;59069;52.242;20.900;2023-01-15T00:11:18;5.54;73.82
70676;DHT22;59069;52.242;20.900;2023-01-15T00:13:44;5.54;73.69
70676;DHT22;59069;52.242;20.900;2023-01-15T00:16:19;5.54;73.55
70676;DHT22;59069;52.242;20.900;2023-01-15T00:18:58;5.58;73.51
70676;DHT22;59069;52.242;20.900;2023-01-15T00:21:25;5.55;73.39
70676;DHT22;59069;52.242;20.900;2023-01-15T00:23:51;5.58;73.35
70676;DHT22;59069;52.242;20.900;2023-01-15T00:26:36;5.58;73.32
70676;DHT22;59069;52.242;20.900;2023-01-15T00:29:22;5.56;73.35
70676;DHT22;59069;52.242;20.900;2023-01-15T00:32:04;5.52;73.32
70676;DHT22;59069;52.242;20.900;2023-01-15T00:34:30;5.55;73.35
70676;DHT22;59069;52.242;20.900;2023-01-15T00:36:55;5.51;73.41
70676;DHT22;59069;52.242;20.900;2023-01-15T00:39:21;5.48;73.47
70676;DHT22;59069;52.242;20.900;2023-01-15T00:41:49;5.48;73.49
70676;DHT22;59069;52.242;20.900;2023-01-15T00:44:15;5.47;73.58
70676;DHT22;59069;52.242;20.900;2023-01-15T00:46:41;5.41;73.67
70676;DHT22;59069;52.242;20.900;2023-01-15T00:49:06;5.38;73.81
70676;DHT22;59069;52.242;20.900;2023-01-15T00:51:32;5.39;73.81
70676;DHT22;59069;52.242;20.900;2023-01-15T00:53:58;5.34;73.96
70676;DHT22;59069;52.242;20.900;2023-01-15T00:56:23;5.34;74.00
70676;DHT22;59069;52.242;20.900;2023-01-15T00:58:49;5.32;74.05
70676;DHT22;59069;52.242;20.900;2023-01-15T01:01:14;5.31;74.00
70676;DHT22;59069;52.242;20.900;2023-01-15T01:03:40;5.30;73.95
70676;DHT22;59069;52.242;20.900;2023-01-15T01:06:06;5.28;73.98
70676;DHT22;59069;52.242;20.900;2023-01-15T01:08:31;5.28;73.97
70676;DHT22;59069;52.242;20.900;2023-01-15T01:11:02;5.26;74.06
70676;DHT22;59069;52.242;20.900;2023-01-15T01:13:28;5.26;74.11
70676;DHT22;59069;52.242;20.900;2023-01-15T01:15:53;5.24;74.19
70676;DHT22;59069;52.242;20.900;2023-01-15T01:18:19;5.21;74.25
70676;DHT22;59069;52.242;20.900;2023-01-15T01:20:44;5.20;74.30
70676;DHT22;59069;52.242;20.900;2023-01-15T01:23:10;5.18;74.33
70676;DHT22;59069;52.242;20.900;2023-01-15T01:25:35;5.16;74.39
70676;DHT22;59069;52.242;20.900;2023-01-15T01:28:01;5.17;74.54
70676;DHT22;59069;52.242;20.900;2023-01-15T01:30:26;5.17;74.46
70676;DHT22;59069;52.242;20.900;2023-01-15T01:32:52;5.14;74.42
70676;DHT22;59069;52.242;20.900;2023-01-15T01:35:17;5.11;74.44
70676;DHT22;59069;52.242;20.900;2023-01-15T01:37:48;5.08;74.44
70676;DHT22;59069;52.242;20.900;2023-01-15T01:40:13;5.07;74.54
70676;DHT22;59069;52.242;20.900;2023-01-15T01:42:39;5.06;74.55
70676;DHT22;59069;52.242;20.900;2023-01-15T01:45:28;5.04;74.58
70676;DHT22;59069;52.242;20.900;2023-01-15T01:47:59;5.00;74.57
70676;DHT22;59069;52.242;20.900;2023-01-15T01:50:27;5.03;74.55
70676;DHT22;59069;52.242;20.900;2023-01-15T01:52:55;5.01;74.46
70676;DHT22;59069;52.242;20.900;2023-01-15T01:55:23;4.98;74.36
70676;DHT22;59069;52.242;20.900;2023-01-15T01:57:51;4.97;74.25
70676;DHT22;59069;52.242;20.900;2023-01-15T02:00:17;4.91;74.25
70676;DHT22;59069;52.242;20.900;2023-01-15T02:02:45;4.90;74.27
70676;DHT22;59069;52.242;20.900;2023-01-15T02:05:30;4.86;74.40
70676;DHT22;59069;52.242;20.900;2023-01-15T02:07:56;4.80;74.57
70676;DHT22;59069;52.242;20.900;2023-01-15T02:10:22;4.79;74.79
70676;DHT22;59069;52.242;20.900;2023-01-15T02:12:55;4.77;74.85
70676;DHT22;59069;52.242;20.900;2023-01-15T02:15:31;4.77;75.04
70676;DHT22;59069;52.242;20.900;2023-01-15T02:21:15;4.77;75.07
70676;DHT22;59069;52.242;20.900;2023-01-15T02:23:51;4.76;75.10
70676;DHT22;59069;52.242;20.900;2023-01-15T02:28:52;4.80;74.98
70676;DHT22;59069;52.242;20.900;2023-01-15T02:31:36;4.80;74.87
70676;DHT22;59069;52.242;20.900;2023-01-15T02:36:39;4.83;74.64
70676;DHT22;59069;52.242;20.900;2023-01-15T02:39:09;4.83;74.60
70676;DHT22;59069;52.242;20.900;2023-01-15T02:41:38;4.84;74.53
70676;DHT22;59069;52.242;20.900;2023-01-15T02:44:07;4.84;74.41
70676;DHT22;59069;52.242;20.900;2023-01-15T02:46:36;4.84;74.43
70676;DHT22;59069;52.242;20.900;2023-01-15T02:49:05;4.86;74.41
70676;DHT22;59069;52.242;20.900;2023-01-15T02:51:48;4.87;74.31
70676;DHT22;59069;52.242;20.900;2023-01-15T02:54:16;4.83;74.15
70676;DHT22;59069;52.242;20.900;2023-01-15T02:56:44;4.84;73.91
70676;DHT22;59069;52.242;20.900;2023-01-15T02:59:16;4.83;73.83
70676;DHT22;59069;52.242;20.900;2023-01-15T03:01:47;4.79;73.97
70676;DHT22;59069;52.242;20.900;2023-01-15T03:04:37;4.76;74.13
70676;DHT22;59069;52.242;20.900;2023-01-15T03:07:22;4.70;74.26
70676;DHT22;59069;52.242;20.900;2023-01-15T03:09:49;4.69;74.24
70676;DHT22;59069;52.242;20.900;2023-01-15T03:15:19;4.70;74.25
70676;DHT22;59069;52.242;20.900;2023-01-15T03:18:05;4.72;74.27
70676;DHT22;59069;52.242;20.900;2023-01-15T03:20:32;4.73;74.26
70676;DHT22;59069;52.242;20.900;2023-01-15T03:23:06;4.72;74.14
70676;DHT22;59069;52.242;20.900;2023-01-15T03:25:36;4.73;74.12
70676;DHT22;59069;52.242;20.900;2023-01-15T03:28:04;4.76;74.05
70676;DHT22;59069;52.242;20.900;2023-01-15T03:30:32;4.76;73.95
70676;DHT22;59069;52.242;20.900;2023-01-15T03:32:57;4.79;73.93
70676;DHT22;59069;52.242;20.900;2023-01-15T03:38:21;4.77;73.79
70676;DHT22;59069;52.242;20.900;2023-01-15T03:40:52;4.80;73.66
70676;DHT22;59069;52.242;20.900;2023-01-15T03:43:25;4.81;73.63
70676;DHT22;59069;52.242;20.900;2023-01-15T03:54:49;4.89;73.37
70676;DHT22;59069;52.242;20.900;2023-01-15T03:57:29;4.86;73.36
70676;DHT22;59069;52.242;20.900;2023-01-15T03:59:58;4.86;73.30
70676;DHT22;59069;52.242;20.900;2023-01-15T04:02:26;4.83;73.24
70676;DHT22;59069;52.242;20.900;2023-01-15T04:04:55;4.83;73.25
70676;DHT22;59069;52.242;20.900;2023-01-15T04:07:23;4.80;73.33
70676;DHT22;59069;52.242;20.900;2023-01-15T04:09:49;4.80;73.36
70676;DHT22;59069;52.242;20.900;2023-01-15T04:12:14;4.80;73.44
70676;DHT22;59069;52.242;20.900;2023-01-15T04:14:40;4.76;73.46
70676;DHT22;59069;52.242;20.900;2023-01-15T04:17:05;4.79;73.52
70676;DHT22;59069;52.242;20.900;2023-01-15T04:19:31;4.77;73.64
70676;DHT22;59069;52.242;20.900;2023-01-15T04:21:56;4.79;73.51
70676;DHT22;59069;52.242;20.900;2023-01-15T04:24:22;4.80;73.46
70676;DHT22;59069;52.242;20.900;2023-01-15T04:26:47;4.79;73.49
70676;DHT22;59069;52.242;20.900;2023-01-15T04:29:13;4.80;73.37
70676;DHT22;59069;52.242;20.900;2023-01-15T04:31:38;4.76;73.31
70676;DHT22;59069;52.242;20.900;2023-01-15T04:34:04;4.75;73.41
70676;DHT22;59069;52.242;20.900;2023-01-15T04:36:30;4.77;73.37
70676;DHT22;59069;52.242;20.900;2023-01-15T04:38:55;4.75;73.30
70676;DHT22;59069;52.242;20.900;2023-01-15T04:41:23;4.75;73.25
70676;DHT22;59069;52.242;20.900;2023-01-15T04:44:07;4.77;73.39
70676;DHT22;59069;52.242;20.900;2023-01-15T04:46:41;4.76;73.41
70676;DHT22;59069;52.242;20.900;2023-01-15T04:49:15;4.75;73.38
70676;DHT22;59069;52.242;20.900;2023-01-15T04:51:41;4.77;73.24
70676;DHT22;59069;52.242;20.900;2023-01-15T04:54:08;4.80;73.18
70676;DHT22;59069;52.242;20.900;2023-01-15T04:56:45;4.80;73.11
70676;DHT22;59069;52.242;20.900;2023-01-15T04:59:12;4.81;73.05
70676;DHT22;59069;52.242;20.900;2023-01-15T05:01:38;4.84;72.92
70676;DHT22;59069;52.242;20.900;2023-01-15T05:04:04;4.83;72.91
70676;DHT22;59069;52.242;20.900;2023-01-15T05:06:29;4.86;72.85
70676;DHT22;59069;52.242;20.900;2023-01-15T05:08:59;4.90;72.77
70676;DHT22;59069;52.242;20.900;2023-01-15T05:11:24;4.89;72.66
70676;DHT22;59069;52.242;20.900;2023-01-15T05:13:50;4.93;72.61
70676;DHT22;59069;52.242;20.900;2023-01-15T05:16:21;4.97;72.48
70676;DHT22;59069;52.242;20.900;2023-01-15T05:18:50;5.01;72.29
70676;DHT22;59069;52.242;20.900;2023-01-15T05:21:23;5.07;72.02
70676;DHT22;59069;52.242;20.900;2023-01-15T05:23:51;5.08;71.85
70676;DHT22;59069;52.242;20.900;2023-01-15T05:26:17;5.13;71.70
70676;DHT22;59069;52.242;20.900;2023-01-15T05:28:43;5.13;71.62
70676;DHT22;59069;52.242;20.900;2023-01-15T05:31:11;5.14;71.52
70676;DHT22;59069;52.242;20.900;2023-01-15T05:33:37;5.17;71.37
70676;DHT22;59069;52.242;20.900;2023-01-15T05:36:06;5.20;71.28
70676;DHT22;59069;52.242;20.900;2023-01-15T05:38:32;5.21;71.14
70676;DHT22;59069;52.242;20.900;2023-01-15T05:40:58;5.24;71.08
70676;DHT22;59069;52.242;20.900;2023-01-15T05:43:24;5.26;71.00
70676;DHT22;59069;52.242;20.900;2023-01-15T05:45:49;5.27;70.93
70676;DHT22;59069;52.242;20.900;2023-01-15T05:48:15;5.27;70.78
70676;DHT22;59069;52.242;20.900;2023-01-15T05:50:40;5.30;70.67
70676;DHT22;59069;52.242;20.900;2023-01-15T05:53:06;5.31;70.60
70676;DHT22;59069;52.242;20.900;2023-01-15T05:55:32;5.31;70.48
70676;DHT22;59069;52.242;20.900;2023-01-15T05:57:58;5.35;70.35
70676;DHT22;59069;52.242;20.900;2023-01-15T06:00:23;5.34;70.25
70676;DHT22;59069;52.242;20.900;2023-01-15T06:02:50;5.35;70.34
70676;DHT22;59069;52.242;20.900;2023-01-15T06:05:16;5.37;70.42
70676;DHT22;59069;52.242;20.900;2023-01-15T06:07:49;5.38;70.37
70676;DHT22;59069;52.242;20.900;2023-01-15T06:10:17;5.38;70.40
70676;DHT22;59069;52.242;20.900;2023-01-15T06:12:43;5.39;70.64
70676;DHT22;59069;52.242;20.900;2023-01-15T06:15:10;5.38;70.81
70676;DHT22;59069;52.242;20.900;2023-01-15T06:17:36;5.39;71.09
70676;DHT22;59069;52.242;20.900;2023-01-15T06:20:02;5.37;71.30
70676;DHT22;59069;52.242;20.900;2023-01-15T06:22:28;5.34;71.61
70676;DHT22;59069;52.242;20.900;2023-01-15T06:24:54;5.34;71.83
70676;DHT22;59069;52.242;20.900;2023-01-15T06:27:19;5.31;72.05
70676;DHT22;59069;52.242;20.900;2023-01-15T06:29:45;5.32;72.21
70676;DHT22;59069;52.242;20.900;2023-01-15T06:32:10;5.28;72.38
70676;DHT22;59069;52.242;20.900;2023-01-15T06:34:36;5.28;72.47
70676;DHT22;59069;52.242;20.900;2023-01-15T06:37:01;5.27;72.53
70676;DHT22;59069;52.242;20.900;2023-01-15T06:39:27;5.24;72.64
70676;DHT22;59069;52.242;20.900;2023-01-15T06:41:52;5.28;72.63
70676;DHT22;59069;52.242;20.900;2023-01-15T06:44:36;5.30;72.70
70676;DHT22;59069;52.242;20.900;2023-01-15T06:47:31;5.31;72.73
70676;DHT22;59069;52.242;20.900;2023-01-15T06:49:57;5.30;72.91
70676;DHT22;59069;52.242;20.900;2023-01-15T06:52:25;5.26;73.08
70676;DHT22;59069;52.242;20.900;2023-01-15T06:54:53;5.27;73.35
70676;DHT22;59069;52.242;20.900;2023-01-15T06:57:19;5.23;73.75
70676;DHT22;59069;52.242;20.900;2023-01-15T06:59:45;5.21;74.07
70676;DHT22;59069;52.242;20.900;2023-01-15T07:02:11;5.17;74.52
70676;DHT22;59069;52.242;20.900;2023-01-15T07:04:36;5.17;74.92
70676;DHT22;59069;52.242;20.900;2023-01-15T07:07:02;5.10;75.41
70676;DHT22;59069;52.242;20.900;2023-01-15T07:09:28;5.13;75.81
70676;DHT22;59069;52.242;20.900;2023-01-15T07:11:53;5.10;76.13
70676;DHT22;59069;52.242;20.900;2023-01-15T07:14:23;5.04;76.30
70676;DHT22;59069;52.242;20.900;2023-01-15T07:16:50;5.04;76.61
70676;DHT22;59069;52.242;20.900;2023-01-15T07:19:16;5.04;76.86
70676;DHT22;59069;52.242;20.900;2023-01-15T07:21:43;5.03;77.30
70676;DHT22;59069;52.242;20.900;2023-01-15T07:24:09;5.03;77.47
70676;DHT22;59069;52.242;20.900;2023-01-15T07:26:35;5.06;77.58
70676;DHT22;59069;52.242;20.900;2023-01-15T07:29:02;5.04;77.68
70676;DHT22;59069;52.242;20.900;2023-01-15T07:31:27;5.07;77.77
70676;DHT22;59069;52.242;20.900;2023-01-15T07:33:55;5.08;77.87
70676;DHT22;59069;52.242;20.900;2023-01-15T07:36:21;5.07;77.91
70676;DHT22;59069;52.242;20.900;2023-01-15T07:38:46;5.10;77.90
70676;DHT22;59069;52.242;20.900;2023-01-15T07:41:12;5.10;77.89
70676;DHT22;59069;52.242;20.900;2023-01-15T07:43:56;5.14;77.89
70676;DHT22;59069;52.242;20.900;2023-01-15T07:46:40;5.17;77.92
70676;DHT22;59069;52.242;20.900;2023-01-15T07:49:24;5.18;77.97
70676;DHT22;59069;52.242;20.900;2023-01-15T07:52:08;5.18;77.87
70676;DHT22;59069;52.242;20.900;2023-01-15T07:54:34;5.21;77.83
70676;DHT22;59069;52.242;20.900;2023-01-15T07:56:59;5.24;77.88
70676;DHT22;59069;52.242;20.900;2023-01-15T07:59:25;5.27;77.96
70676;DHT22;59069;52.242;20.900;2023-01-15T08:01:50;5.28;77.95
70676;DHT22;59069;52.242;20.900;2023-01-15T08:04:16;5.31;78.09
70676;DHT22;59069;52.242;20.900;2023-01-15T08:06:41;5.34;78.09
70676;DHT22;59069;52.242;20.900;2023-01-15T08:09:07;5.37;78.14
70676;DHT22;59069;52.242;20.900;2023-01-15T08:11:32;5.42;78.21
70676;DHT22;59069;52.242;20.900;2023-01-15T08:14:17;5.45;78.22
70676;DHT22;59069;52.242;20.900;2023-01-15T08:17:01;5.47;78.21
70676;DHT22;59069;52.242;20.900;2023-01-15T08:19:27;5.49;78.30
70676;DHT22;59069;52.242;20.900;2023-01-15T08:21:56;5.52;78.38
70676;DHT22;59069;52.242;20.900;2023-01-15T08:24:23;5.59;78.63
70676;DHT22;59069;52.242;20.900;2023-01-15T08:26:48;5.55;78.82
70676;DHT22;59069;52.242;20.900;2023-01-15T08:29:14;5.59;79.04
70676;DHT22;59069;52.242;20.900;2023-01-15T08:31:40;5.61;79.16
70676;DHT22;59069;52.242;20.900;2023-01-15T08:34:06;5.65;79.17
70676;DHT22;59069;52.242;20.900;2023-01-15T08:36:32;5.65;79.36
70676;DHT22;59069;52.242;20.900;2023-01-15T08:38:58;5.68;79.49
70676;DHT22;59069;52.242;20.900;2023-01-15T08:41:23;5.69;79.60
70676;DHT22;59069;52.242;20.900;2023-01-15T08:43:49;5.72;79.63
70676;DHT22;59069;52.242;20.900;2023-01-15T08:46:14;5.78;79.60
70676;DHT22;59069;52.242;20.900;2023-01-15T08:48:40;5.80;79.54
70676;DHT22;59069;52.242;20.900;2023-01-15T08:51:07;5.83;79.47
70676;DHT22;59069;52.242;20.900;2023-01-15T08:53:33;5.82;79.55
70676;DHT22;59069;52.242;20.900;2023-01-15T08:55:58;5.85;79.55
70676;DHT22;59069;52.242;20.900;2023-01-15T08:58:30;5.86;79.43
70676;DHT22;59069;52.242;20.900;2023-01-15T09:01:03;5.89;79.60
70676;DHT22;59069;52.242;20.900;2023-01-15T09:03:31;5.90;79.55
70676;DHT22;59069;52.242;20.900;2023-01-15T09:05:58;5.93;79.81
70676;DHT22;59069;52.242;20.900;2023-01-15T09:08:24;5.95;79.69
70676;DHT22;59069;52.242;20.900;2023-01-15T09:10:49;5.96;79.82
70676;DHT22;59069;52.242;20.900;2023-01-15T09:13:15;5.93;79.89
70676;DHT22;59069;52.242;20.900;2023-01-15T09:15:40;5.96;79.96
70676;DHT22;59069;52.242;20.900;2023-01-15T09:18:07;5.93;80.13
70676;DHT22;59069;52.242;20.900;2023-01-15T09:20:35;5.95;80.35
70676;DHT22;59069;52.242;20.900;2023-01-15T09:23:00;5.95;80.61
70676;DHT22;59069;52.242;20.900;2023-01-15T09:25:26;5.93;80.74
70676;DHT22;59069;52.242;20.900;2023-01-15T09:27:54;5.93;80.90
70676;DHT22;59069;52.242;20.900;2023-01-15T09:30:20;5.93;81.01
70676;DHT22;59069;52.242;20.900;2023-01-15T09:32:47;5.93;81.24
70676;DHT22;59069;52.242;20.900;2023-01-15T09:35:12;5.95;81.42
70676;DHT22;59069;52.242;20.900;2023-01-15T09:37:38;5.96;81.54
70676;DHT22;59069;52.242;20.900;2023-01-15T09:40:05;5.93;81.53
70676;DHT22;59069;52.242;20.900;2023-01-15T09:43:02;5.93;81.60
70676;DHT22;59069;52.242;20.900;2023-01-15T09:45:36;5.89;81.86
70676;DHT22;59069;52.242;20.900;2023-01-15T09:51:11;5.90;82.22
70676;DHT22;59069;52.242;20.900;2023-01-15T09:53:52;5.88;82.29
70676;DHT22;59069;52.242;20.900;2023-01-15T09:56:26;5.89;82.39
70676;DHT22;59069;52.242;20.900;2023-01-15T09:58:53;5.89;82.35
70676;DHT22;59069;52.242;20.900;2023-01-15T10:01:26;5.90;82.49
70676;DHT22;59069;52.242;20.900;2023-01-15T10:04:00;5.93;82.59
70676;DHT22;59069;52.242;20.900;2023-01-15T10:06:32;5.93;82.76
70676;DHT22;59069;52.242;20.900;2023-01-15T10:09:03;5.93;82.80
70676;DHT22;59069;52.242;20.900;2023-01-15T10:11:40;5.93;83.02
70676;DHT22;59069;52.242;20.900;2023-01-15T10:17:26;5.96;83.35
70676;DHT22;59069;52.242;20.900;2023-01-15T10:19:53;6.03;83.30
70676;DHT22;59069;52.242;20.900;2023-01-15T10:25:01;6.02;83.44
70676;DHT22;59069;52.242;20.900;2023-01-15T10:27:30;6.03;83.44
70676;DHT22;59069;52.242;20.900;2023-01-15T10:30:15;6.07;83.38
70676;DHT22;59069;52.242;20.900;2023-01-15T10:32:46;6.09;83.41
70676;DHT22;59069;52.242;20.900;2023-01-15T10:46:17;6.24;82.63
70676;DHT22;59069;52.242;20.900;2023-01-15T10:48:50;6.27;82.49
70676;DHT22;59069;52.242;20.900;2023-01-15T10:53:49;6.36;82.27
70676;DHT22;59069;52.242;20.900;2023-01-15T10:56:34;6.43;82.26
70676;DHT22;59069;52.242;20.900;2023-01-15T10:59:03;6.48;82.07
70676;DHT22;59069;52.242;20.900;2023-01-15T11:01:33;6.52;81.97
70676;DHT22;59069;52.242;20.900;2023-01-15T11:03:59;6.55;81.91
70676;DHT22;59069;52.242;20.900;2023-01-15T11:06:25;6.57;81.72
70676;DHT22;59069;52.242;20.900;2023-01-15T11:08:53;6.64;81.60
70676;DHT22;59069;52.242;20.900;2023-01-15T11:11:42;6.64;81.41
70676;DHT22;59069;52.242;20.900;2023-01-15T11:14:42;6.72;81.40
70676;DHT22;59069;52.242;20.900;2023-01-15T11:17:34;6.75;81.09
70676;DHT22;59069;52.242;20.900;2023-01-15T11:20:30;6.77;80.90
70676;DHT22;59069;52.242;20.900;2023-01-15T11:23:14;6.80;80.73
70676;DHT22;59069;52.242;20.900;2023-01-15T11:25:57;6.80;80.47
70676;DHT22;59069;52.242;20.900;2023-01-15T11:28:50;6.84;80.39
70676;DHT22;59069;52.242;20.900;2023-01-15T11:31:16;6.89;80.08
70676;DHT22;59069;52.242;20.900;2023-01-15T11:34:05;6.89;79.86
70676;DHT22;59069;52.242;20.900;2023-01-15T11:36:30;6.92;79.66
70676;DHT22;59069;52.242;20.900;2023-01-15T11:38:56;6.93;79.50
70676;DHT22;59069;52.242;20.900;2023-01-15T11:44:11;6.98;79.29
70676;DHT22;59069;52.242;20.900;2023-01-15T11:46:55;6.98;79.15
70676;DHT22;59069;52.242;20.900;2023-01-15T11:49:49;6.99;78.96
70676;DHT22;59069;52.242;20.900;2023-01-15T11:52:36;7.02;78.80
70676;DHT22;59069;52.242;20.900;2023-01-15T11:55:10;7.02;78.65
70676;DHT22;59069;52.242;20.900;2023-01-15T11:57:37;7.02;78.60
70676;DHT22;59069;52.242;20.900;2023-01-15T12:00:03;7.05;78.45
70676;DHT22;59069;52.242;20.900;2023-01-15T12:02:39;7.05;78.30
70676;DHT22;59069;52.242;20.900;2023-01-15T12:05:24;7.06;78.15
70676;DHT22;59069;52.242;20.900;2023-01-15T12:07:52;7.12;77.89
70676;DHT22;59069;52.242;20.900;2023-01-15T12:10:28;7.15;77.59
70676;DHT22;59069;52.242;20.900;2023-01-15T12:13:37;7.18;77.36
70676;DHT22;59069;52.242;20.900;2023-01-15T12:18:55;7.22;76.99
70676;DHT22;59069;52.242;20.900;2023-01-15T12:29:33;7.32;75.94
70676;DHT22;59069;52.242;20.900;2023-01-15T12:32:17;7.39;75.68
70676;DHT22;59069;52.242;20.900;2023-01-15T12:35:01;7.42;75.48
70676;DHT22;59069;52.242;20.900;2023-01-15T12:37:33;7.44;75.10
70676;DHT22;59069;52.242;20.900;2023-01-15T12:42:32;7.52;74.67
70676;DHT22;59069;52.242;20.900;2023-01-15T12:45:22;7.53;74.21
70676;DHT22;59069;52.242;20.900;2023-01-15T13:01:20;7.66;72.88
70676;DHT22;59069;52.242;20.900;2023-01-15T13:03:57;7.70;72.40
70676;DHT22;59069;52.242;20.900;2023-01-15T13:06:24;7.73;72.21
70676;DHT22;59069;52.242;20.900;2023-01-15T13:11:18;7.74;71.78
70676;DHT22;59069;52.242;20.900;2023-01-15T13:13:43;7.78;71.51
70676;DHT22;59069;52.242;20.900;2023-01-15T13:16:44;7.81;71.35
70676;DHT22;59069;52.242;20.900;2023-01-15T13:19:32;7.87;71.24
70676;DHT22;59069;52.242;20.900;2023-01-15T13:22:07;7.88;70.96
70676;DHT22;59069;52.242;20.900;2023-01-15T13:32:49;7.97;69.91
70676;DHT22;59069;52.242;20.900;2023-01-15T13:35:30;7.98;69.63
70676;DHT22;59069;52.242;20.900;2023-01-15T13:38:01;8.01;69.37
70676;DHT22;59069;52.242;20.900;2023-01-15T13:40:31;8.02;69.20
70676;DHT22;59069;52.242;20.900;2023-01-15T13:43:00;8.04;69.16
70676;DHT22;59069;52.242;20.900;2023-01-15T13:45:41;8.05;69.07
70676;DHT22;59069;52.242;20.900;2023-01-15T13:48:43;8.08;68.85
70676;DHT22;59069;52.242;20.900;2023-01-15T13:51:32;8.05;68.72
70676;DHT22;59069;52.242;20.900;2023-01-15T13:54:12;8.08;68.60
70676;DHT22;59069;52.242;20.900;2023-01-15T13:56:40;8.09;68.64
70676;DHT22;59069;52.242;20.900;2023-01-15T13:59:46;8.07;68.56
70676;DHT22;59069;52.242;20.900;2023-01-15T14:02:26;8.09;68.34
70676;DHT22;59069;52.242;20.900;2023-01-15T14:04:51;8.11;68.10
70676;DHT22;59069;52.242;20.900;2023-01-15T14:07:40;8.09;67.98
70676;DHT22;59069;52.242;20.900;2023-01-15T14:19:04;8.18;67.44
70676;DHT22;59069;52.242;20.900;2023-01-15T14:28:13;8.21;67.00
70676;DHT22;59069;52.242;20.900;2023-01-15T14:36:36;8.21;66.61
70676;DHT22;59069;52.242;20.900;2023-01-15T14:39:04;8.18;66.66
70676;DHT22;59069;52.242;20.900;2023-01-15T14:41:34;8.24;66.68
70676;DHT22;59069;52.242;20.900;2023-01-15T14:44:30;8.21;66.48
70676;DHT22;59069;52.242;20.900;2023-01-15T14:47:00;8.24;66.43
70676;DHT22;59069;52.242;20.900;2023-01-15T14:49:30;8.24;66.67
70676;DHT22;59069;52.242;20.900;2023-01-15T14:51:57;8.24;66.75
70676;DHT22;59069;52.242;20.900;2023-01-15T14:54:23;8.24;66.87
70676;DHT22;59069;52.242;20.900;2023-01-15T14:56:55;8.22;67.03
70676;DHT22;59069;52.242;20.900;2023-01-15T14:59:28;8.22;67.07
70676;DHT22;59069;52.242;20.900;2023-01-15T15:02:07;8.22;67.12
70676;DHT22;59069;52.242;20.900;2023-01-15T15:07:38;8.18;66.93
70676;DHT22;59069;52.242;20.900;2023-01-15T15:10:22;8.21;66.77
70676;DHT22;59069;52.242;20.900;2023-01-15T15:15:46;8.25;66.73
70676;DHT22;59069;52.242;20.900;2023-01-15T15:18:25;8.25;66.68
70676;DHT22;59069;52.242;20.900;2023-01-15T15:23:41;8.26;66.57
70676;DHT22;59069;52.242;20.900;2023-01-15T15:26:32;8.28;66.51
70676;DHT22;59069;52.242;20.900;2023-01-15T15:29:00;8.31;66.45
70676;DHT22;59069;52.242;20.900;2023-01-15T15:31:28;8.32;66.31
70676;DHT22;59069;52.242;20.900;2023-01-15T15:33:56;8.35;66.41
70676;DHT22;59069;52.242;20.900;2023-01-15T15:36:28;8.35;66.41
70676;DHT22;59069;52.242;20.900;2023-01-15T15:39:00;8.35;66.53
70676;DHT22;59069;52.242;20.900;2023-01-15T15:41:30;8.34;66.54
70676;DHT22;59069;52.242;20.900;2023-01-15T15:44:19;8.38;66.50
70676;DHT22;59069;52.242;20.900;2023-01-15T15:47:19;8.39;66.53
70676;DHT22;59069;52.242;20.900;2023-01-15T15:50:05;8.38;66.63
70676;DHT22;59069;52.242;20.900;2023-01-15T15:52:32;8.36;66.87
70676;DHT22;59069;52.242;20.900;2023-01-15T15:54:59;8.36;67.09
70676;DHT22;59069;52.242;20.900;2023-01-15T15:57:27;8.35;67.26
70676;DHT22;59069;52.242;20.900;2023-01-15T15:59:55;8.36;67.42
70676;DHT22;59069;52.242;20.900;2023-01-15T16:02:30;8.34;67.73
70676;DHT22;59069;52.242;20.900;2023-01-15T16:05:03;8.31;68.19
70676;DHT22;59069;52.242;20.900;2023-01-15T16:07:31;8.28;68.53
70676;DHT22;59069;52.242;20.900;2023-01-15T16:10:30;8.26;68.92
70676;DHT22;59069;52.242;20.900;2023-01-15T16:13:02;8.24;69.23
70676;DHT22;59069;52.242;20.900;2023-01-15T16:15:32;8.24;69.55
70676;DHT22;59069;52.242;20.900;2023-01-15T16:17:59;8.22;69.87
70676;DHT22;59069;52.242;20.900;2023-01-15T16:20:26;8.20;70.16
70676;DHT22;59069;52.242;20.900;2023-01-15T16:23:00;8.15;70.48
70676;DHT22;59069;52.242;20.900;2023-01-15T16:25:39;8.11;70.79
70676;DHT22;59069;52.242;20.900;2023-01-15T16:28:06;8.09;71.05
70676;DHT22;59069;52.242;20.900;2023-01-15T16:30:56;8.08;71.29
70676;DHT22;59069;52.242;20.900;2023-01-15T16:33:22;8.08;71.51
70676;DHT22;59069;52.242;20.900;2023-01-15T16:36:00;8.05;71.65
70676;DHT22;59069;52.242;20.900;2023-01-15T16:38:38;8.04;71.79
70676;DHT22;59069;52.242;20.900;2023-01-15T16:41:05;7.97;72.06
70676;DHT22;59069;52.242;20.900;2023-01-15T16:43:31;7.95;72.27
70676;DHT22;59069;52.242;20.900;2023-01-15T16:46:05;7.91;72.63
70676;DHT22;59069;52.242;20.900;2023-01-15T16:48:40;7.87;73.09
70676;DHT22;59069;52.242;20.900;2023-01-15T16:51:35;7.80;73.57
70676;DHT22;59069;52.242;20.900;2023-01-15T16:57:11;7.67;74.71
70676;DHT22;59069;52.242;20.900;2023-01-15T17:02:20;7.54;75.72
70676;DHT22;59069;52.242;20.900;2023-01-15T17:04:46;7.50;76.06
70676;DHT22;59069;52.242;20.900;2023-01-15T17:09:46;7.44;76.63
70676;DHT22;59069;52.242;20.900;2023-01-15T17:14:44;7.36;77.33
70676;DHT22;59069;52.242;20.900;2023-01-15T17:19:49;7.32;77.93
70676;DHT22;59069;52.242;20.900;2023-01-15T17:24:50;7.26;78.56
70676;DHT22;59069;52.242;20.900;2023-01-15T17:27:15;7.23;78.85
70676;DHT22;59069;52.242;20.900;2023-01-15T17:29:41;7.20;79.14
70676;DHT22;59069;52.242;20.900;2023-01-15T17:32:23;7.22;79.42
70676;DHT22;59069;52.242;20.900;2023-01-15T17:34:50;7.19;79.67
70676;DHT22;59069;52.242;20.900;2023-01-15T17:37:15;7.15;79.97
70676;DHT22;59069;52.242;20.900;2023-01-15T17:39:41;7.12;80.20
70676;DHT22;59069;52.242;20.900;2023-01-15T17:42:14;7.12;80.50
70676;DHT22;59069;52.242;20.900;2023-01-15T17:44:40;7.12;80.67
70676;DHT22;59069;52.242;20.900;2023-01-15T17:47:06;7.13;80.93
70676;DHT22;59069;52.242;20.900;2023-01-15T17:49:31;7.12;81.14
70676;DHT22;59069;52.242;20.900;2023-01-15T17:51:58;7.08;81.39
70676;DHT22;59069;52.242;20.900;2023-01-15T17:54:24;7.05;81.64
70676;DHT22;59069;52.242;20.900;2023-01-15T17:57:08;7.03;81.98
70676;DHT22;59069;52.242;20.900;2023-01-15T17:59:52;7.01;82.26
70676;DHT22;59069;52.242;20.900;2023-01-15T18:02:36;6.99;82.52
70676;DHT22;59069;52.242;20.900;2023-01-15T18:05:21;6.96;82.76
70676;DHT22;59069;52.242;20.900;2023-01-15T18:07:55;6.96;83.00